This is the latest recevied weather packets stored in our database for station/object OH2HCY-3. If no packets are shown the sender has not sent any weather packets the latest 10 day(s).
| Time | Temp. | Humidity | Pressure | Rain* | Wind** | Luminosity | Snow |
|---|---|---|---|---|---|---|---|
| 1777595315 | 5.56° C | 79% | 1021.8 hPa | - | - | - | - |
| 1777594175 | 5.56° C | 79% | 1021.8 hPa | - | - | - | - |
| 1777593211 | 6.11° C | 79% | 1021.8 hPa | - | - | - | - |
| 1777592030 | 6.11° C | 77% | 1021.9 hPa | - | - | - | - |
| 1777590850 | 6.67° C | 76% | 1021.8 hPa | - | - | - | - |
| 1777589823 | 7.22° C | 73% | 1021.8 hPa | - | - | - | - |
| 1777588745 | 7.22° C | 74% | 1021.9 hPa | - | - | - | - |
| 1777587615 | 7.78° C | 73% | 1021.7 hPa | - | - | - | - |
| 1777586454 | 7.22° C | 74% | 1021.7 hPa | - | - | - | - |
| 1777585310 | 7.78° C | 71% | 1021.6 hPa | - | - | - | - |
| 1777584170 | 8.33° C | 69% | 1021.5 hPa | - | - | - | - |
| 1777583210 | 8.89° C | 69% | 1021.6 hPa | - | - | - | - |
| 1777582035 | 8.89° C | 67% | 1021.6 hPa | - | - | - | - |
| 1777581070 | 9.44° C | 66% | 1021.5 hPa | - | - | - | - |
| 1777579968 | 9.44° C | 66% | 1021.5 hPa | - | - | - | - |
| 1777578845 | 8.89° C | 68% | 1021.4 hPa | - | - | - | - |
| 1777577720 | 8.89° C | 70% | 1021.3 hPa | - | - | - | - |
| 1777576555 | 8.33° C | 72% | 1021.3 hPa | - | - | - | - |
| 1777575441 | 8.89° C | 70% | 1021.2 hPa | - | - | - | - |
| 1777574405 | 9.44° C | 69% | 1021 hPa | - | - | - | - |
| 1777573377 | 10.56° C | - | - | - | - | - | - |
| 1777573374 | 10.56° C | 65% | 1021 hPa | - | - | - | - |
| 1777572352 | 11.11° C | 63% | 1020.9 hPa | - | - | - | - |
| 1777572350 | 11.11° C | 63% | 1020.9 hPa | - | - | - | - |
| 1777571395 | 11.67° C | 61% | 1020.6 hPa | - | - | - | - |
* Rain since midnight (hover to see other rain measurements)
** Current wind speed in m/s (hover to see current wind gust speed)